createdAt,value
2023-03-29T00:01:35.075Z,69.33
2023-03-29T00:04:39.225Z,69.08
2023-03-29T00:07:42.884Z,68.92
2023-03-29T00:10:49.308Z,69.40
2023-03-29T00:13:52.610Z,69.64
2023-03-29T00:16:55.390Z,69.60
2023-03-29T00:19:58.134Z,69.25
2023-03-29T00:23:00.929Z,69.22
2023-03-29T00:26:08.206Z,69.29
2023-03-29T00:29:13.437Z,68.66
2023-03-29T00:32:16.453Z,68.63
2023-03-29T00:35:21.333Z,68.41
2023-03-29T00:38:23.987Z,68.68
2023-03-29T00:41:29.240Z,69.90
2023-03-29T00:45:09.573Z,69.87
2023-03-29T00:48:24.614Z,70.46
2023-03-29T00:51:28.681Z,70.29
2023-03-29T00:54:33.168Z,71.29
2023-03-29T00:57:36.056Z,72.03
2023-03-29T01:00:42.244Z,71.70
2023-03-29T01:03:54.812Z,71.66
2023-03-29T01:07:19.260Z,70.89
2023-03-29T01:10:46.920Z,72.00
2023-03-29T01:14:04.026Z,72.97
2023-03-29T01:17:07.184Z,73.11
2023-03-29T01:20:14.254Z,72.85
2023-03-29T01:23:38.239Z,73.07
2023-03-29T01:26:43.947Z,72.91
2023-03-29T01:29:48.452Z,72.57
2023-03-29T01:33:02.189Z,72.16
2023-03-29T01:36:12.182Z,71.85
2023-03-29T01:39:15.054Z,71.84
2023-03-29T01:42:45.274Z,71.61
2023-03-29T01:45:51.774Z,71.46
2023-03-29T01:48:59.086Z,71.20
2023-03-29T01:52:25.731Z,71.70
2023-03-29T01:55:51.540Z,72.55
2023-03-29T01:59:15.704Z,72.86
2023-03-29T02:02:21.815Z,72.96
2023-03-29T02:05:26.744Z,73.00
2023-03-29T02:08:34.072Z,73.23
2023-03-29T02:11:37.456Z,73.35
2023-03-29T02:14:40.711Z,73.57
2023-03-29T02:17:44.639Z,74.02
2023-03-29T02:20:49.503Z,74.43
2023-03-29T02:23:54.958Z,74.03
2023-03-29T02:26:57.750Z,73.30
2023-03-29T02:30:00.680Z,72.95
2023-03-29T02:33:14.364Z,72.25
2023-03-29T02:36:22.909Z,71.79
2023-03-29T02:39:32.433Z,71.55
2023-03-29T02:42:35.567Z,71.84
2023-03-29T02:45:39.742Z,71.23
2023-03-29T02:48:43.093Z,70.50
2023-03-29T02:51:47.821Z,70.24
2023-03-29T02:54:52.029Z,70.43
2023-03-29T02:57:54.929Z,69.69
2023-03-29T03:00:59.530Z,69.31
2023-03-29T03:04:02.795Z,69.32
2023-03-29T03:07:06.001Z,69.03
2023-03-29T03:10:10.474Z,69.20
2023-03-29T03:13:16.719Z,70.04
2023-03-29T03:16:19.702Z,70.23
2023-03-29T03:19:22.444Z,70.35
2023-03-29T03:22:26.783Z,70.29
2023-03-29T03:25:30.112Z,69.68
2023-03-29T03:28:33.436Z,69.33
2023-03-29T03:31:41.701Z,69.43
2023-03-29T03:35:06.274Z,69.86
2023-03-29T03:38:10.997Z,69.41
2023-03-29T03:41:16.342Z,68.97
2023-03-29T03:44:18.989Z,70.13
2023-03-29T03:47:25.301Z,70.51
2023-03-29T03:50:30.473Z,70.88
2023-03-29T03:53:34.118Z,71.10
2023-03-29T03:56:48.968Z,71.47
2023-03-29T04:00:20.680Z,71.95
2023-03-29T04:03:37.984Z,70.75
2023-03-29T04:06:43.790Z,70.55
2023-03-29T04:10:06.562Z,70.53
2023-03-29T04:13:25.398Z,71.03
2023-03-29T04:16:48.006Z,71.05
2023-03-29T04:20:12.870Z,70.35
2023-03-29T04:23:20.719Z,69.52
2023-03-29T04:26:23.927Z,69.34
2023-03-29T04:29:32.894Z,69.22
2023-03-29T04:32:50.141Z,69.73
2023-03-29T04:35:54.443Z,69.75
2023-03-29T04:38:58.980Z,69.39
2023-03-29T04:42:03.687Z,69.49
2023-03-29T04:45:09.064Z,69.24
2023-03-29T04:48:32.623Z,70.05
2023-03-29T04:51:35.579Z,70.84
2023-03-29T04:54:38.811Z,70.24
2023-03-29T04:57:55.835Z,69.77
2023-03-29T05:01:24.837Z,69.79
2023-03-29T05:04:33.351Z,68.53
2023-03-29T05:07:45.702Z,68.23
2023-03-29T05:10:51.228Z,67.84
2023-03-29T05:13:56.237Z,66.87
2023-03-29T05:17:01.848Z,67.04
2023-03-29T05:20:12.108Z,66.57
2023-03-29T05:23:20.773Z,66.13
2023-03-29T05:26:56.965Z,68.22
2023-03-29T05:30:02.146Z,68.07
2023-03-29T05:33:15.187Z,68.25
2023-03-29T05:36:21.687Z,67.91
2023-03-29T05:39:26.334Z,67.45
2023-03-29T05:42:29.509Z,66.83
2023-03-29T05:45:36.258Z,66.43
2023-03-29T05:48:41.434Z,65.34
2023-03-29T05:51:45.955Z,64.78
2023-03-29T05:54:49.244Z,63.85
2023-03-29T05:57:52.769Z,63.25
2023-03-29T06:01:00.821Z,63.51
2023-03-29T06:04:26.642Z,61.94
2023-03-29T06:07:47.012Z,61.80
2023-03-29T06:11:13.715Z,61.17
2023-03-29T06:14:52.857Z,61.83
2023-03-29T06:18:04.049Z,58.94
2023-03-29T06:21:14.631Z,59.20
2023-03-29T06:24:26.731Z,59.92
2023-03-29T06:27:37.510Z,58.52
2023-03-29T06:30:41.040Z,58.81
2023-03-29T06:33:45.980Z,58.87
2023-03-29T06:37:13.225Z,57.88
2023-03-29T06:40:25.051Z,57.79
2023-03-29T06:43:28.098Z,57.49
2023-03-29T06:46:41.937Z,57.62
2023-03-29T06:49:50.699Z,57.70
2023-03-29T06:53:13.766Z,57.81
2023-03-29T06:56:18.842Z,57.51
2023-03-29T06:59:32.726Z,55.93
2023-03-29T07:02:51.529Z,55.46
2023-03-29T07:06:01.608Z,54.60
2023-03-29T07:09:12.594Z,54.54
2023-03-29T07:12:46.687Z,54.40
2023-03-29T07:15:52.951Z,55.36
2023-03-29T07:19:05.056Z,55.78
2023-03-29T07:22:30.799Z,53.90
2023-03-29T07:25:37.213Z,54.53
2023-03-29T07:28:41.810Z,53.10
2023-03-29T07:31:47.760Z,54.34
2023-03-29T07:35:23.670Z,54.97
2023-03-29T07:38:29.457Z,54.42
2023-03-29T07:41:46.667Z,54.47
2023-03-29T07:44:49.604Z,54.18
2023-03-29T07:48:00.179Z,54.61
2023-03-29T07:51:11.531Z,53.71
2023-03-29T07:54:25.077Z,53.70
2023-03-29T07:57:51.922Z,52.08
2023-03-29T08:01:00.777Z,52.86
2023-03-29T08:04:23.445Z,49.50
2023-03-29T08:07:46.392Z,51.67
2023-03-29T08:11:19.170Z,51.38
2023-03-29T08:14:40.222Z,49.60
2023-03-29T08:17:58.829Z,48.08
2023-03-29T08:21:02.932Z,47.44
2023-03-29T08:24:06.547Z,47.68
2023-03-29T08:27:17.743Z,49.80
2023-03-29T08:30:20.618Z,48.20
2023-03-29T08:33:23.748Z,49.77
2023-03-29T08:36:36.939Z,50.40
2023-03-29T08:39:47.530Z,49.73
2023-03-29T08:43:40.041Z,49.64
2023-03-29T08:47:19.166Z,49.15
2023-03-29T08:50:23.661Z,47.73
2023-03-29T08:53:38.923Z,47.13
2023-03-29T08:56:50.494Z,47.50
2023-03-29T09:00:07.352Z,48.08
2023-03-29T09:03:31.081Z,47.58
2023-03-29T09:06:40.544Z,49.80
2023-03-29T09:09:54.163Z,49.64
2023-03-29T09:13:30.648Z,48.98
2023-03-29T09:17:15.507Z,47.44
2023-03-29T09:20:24.067Z,48.80
2023-03-29T09:23:58.024Z,48.60
2023-03-29T09:27:32.726Z,47.65
2023-03-29T09:31:15.765Z,49.02
2023-03-29T09:34:24.800Z,47.06
2023-03-29T09:37:34.994Z,47.90
2023-03-29T09:40:58.531Z,45.93
2023-03-29T09:44:10.880Z,47.46
2023-03-29T09:47:28.519Z,48.60
2023-03-29T09:50:37.612Z,48.49
2023-03-29T09:53:44.013Z,48.34
2023-03-29T09:57:00.546Z,47.91
2023-03-29T10:00:06.358Z,48.36
2023-03-29T10:03:27.103Z,48.93
2023-03-29T10:06:43.800Z,47.43
2023-03-29T10:09:50.978Z,49.08
2023-03-29T10:13:06.646Z,46.40
2023-03-29T10:16:18.834Z,48.65
2023-03-29T10:19:36.537Z,45.88
2023-03-29T10:22:41.045Z,45.99
2023-03-29T10:25:45.006Z,47.85
2023-03-29T10:28:47.907Z,48.72
2023-03-29T10:31:51.129Z,48.42
2023-03-29T10:34:54.261Z,48.56
2023-03-29T10:37:59.590Z,46.47
2023-03-29T10:41:08.350Z,45.87
2023-03-29T10:44:28.643Z,45.15
2023-03-29T10:47:34.963Z,47.23
2023-03-29T10:50:38.513Z,47.24
2023-03-29T10:53:41.882Z,46.68
2023-03-29T10:57:16.173Z,44.47
2023-03-29T11:00:48.318Z,46.12
2023-03-29T11:03:58.126Z,45.62
2023-03-29T11:07:23.530Z,45.04
2023-03-29T11:10:44.928Z,45.35
2023-03-29T11:14:22.683Z,45.61
2023-03-29T11:17:51.272Z,47.61
2023-03-29T11:21:00.769Z,45.96
2023-03-29T11:24:25.576Z,45.11
2023-03-29T11:27:59.806Z,43.09
2023-03-29T11:31:13.733Z,44.11
2023-03-29T11:34:30.724Z,44.06
2023-03-29T11:37:48.507Z,43.94
2023-03-29T11:40:54.524Z,45.45
2023-03-29T11:44:02.732Z,45.08
2023-03-29T11:47:15.920Z,42.48
2023-03-29T11:50:34.702Z,40.95
2023-03-29T11:53:52.708Z,41.47
2023-03-29T11:57:26.647Z,41.29
2023-03-29T12:00:33.597Z,44.95
2023-03-29T12:03:56.617Z,42.20
2023-03-29T12:07:32.506Z,41.10
2023-03-29T12:11:04.377Z,40.21
2023-03-29T12:14:48.414Z,43.38
2023-03-29T12:18:18.007Z,43.96
2023-03-29T12:21:24.655Z,44.23
2023-03-29T12:24:30.687Z,41.61
2023-03-29T12:28:08.031Z,39.09
2023-03-29T12:31:10.785Z,41.95
2023-03-29T12:34:53.751Z,39.45
2023-03-29T12:38:30.955Z,39.44
2023-03-29T12:41:53.796Z,39.43
2023-03-29T12:45:33.453Z,43.29
2023-03-29T12:48:42.746Z,42.64
2023-03-29T12:51:45.813Z,41.46
2023-03-29T12:54:57.505Z,44.59
2023-03-29T12:58:10.160Z,42.52
2023-03-29T13:01:29.180Z,41.32
2023-03-29T13:04:58.715Z,44.29
2023-03-29T13:08:32.630Z,43.20
2023-03-29T13:11:41.055Z,41.74
2023-03-29T13:14:47.515Z,43.88
2023-03-29T13:18:28.105Z,41.67
2023-03-29T13:21:53.201Z,40.92
2023-03-29T13:25:21.830Z,43.31
2023-03-29T13:28:27.957Z,43.37
2023-03-29T13:31:57.428Z,41.83
2023-03-29T13:35:15.563Z,41.87
2023-03-29T13:38:32.216Z,42.07
2023-03-29T13:41:41.588Z,40.23
2023-03-29T13:44:51.831Z,38.96
2023-03-29T13:48:05.733Z,40.21
2023-03-29T13:51:18.225Z,39.91
2023-03-29T13:54:28.790Z,39.36
2023-03-29T13:57:38.834Z,41.57
2023-03-29T14:00:54.495Z,41.33
2023-03-29T14:03:58.261Z,42.35
2023-03-29T14:07:02.338Z,41.27
2023-03-29T14:10:05.537Z,40.87
2023-03-29T14:13:14.124Z,42.13
2023-03-29T14:16:17.189Z,42.05
2023-03-29T14:19:27.014Z,42.53
2023-03-29T14:22:32.854Z,43.56
2023-03-29T14:25:38.056Z,43.30
2023-03-29T14:28:53.426Z,42.18
2023-03-29T14:32:28.749Z,39.22
2023-03-29T14:35:33.693Z,41.71
2023-03-29T14:38:37.972Z,42.93
2023-03-29T14:41:54.108Z,42.20
2023-03-29T14:45:05.070Z,40.67
2023-03-29T14:48:11.969Z,42.16
2023-03-29T14:51:14.848Z,42.64
2023-03-29T14:54:32.994Z,42.63
2023-03-29T14:57:36.942Z,43.16
2023-03-29T15:00:44.616Z,43.35
2023-03-29T15:03:55.173Z,42.02
2023-03-29T15:06:58.988Z,43.35
2023-03-29T15:10:03.578Z,42.42
2023-03-29T15:13:07.892Z,43.47
2023-03-29T15:16:16.335Z,43.29
2023-03-29T15:19:22.283Z,42.29
2023-03-29T15:22:33.161Z,42.55
2023-03-29T15:25:48.369Z,43.94
2023-03-29T15:29:03.417Z,44.91
2023-03-29T15:32:07.405Z,44.26
2023-03-29T15:35:30.620Z,44.91
2023-03-29T15:38:43.339Z,45.51
2023-03-29T15:41:49.707Z,44.98
2023-03-29T15:44:56.647Z,45.56
2023-03-29T15:48:02.485Z,45.85
2023-03-29T15:51:06.984Z,44.13
2023-03-29T15:54:10.289Z,45.07
2023-03-29T15:57:15.625Z,46.09
2023-03-29T16:00:20.895Z,46.25
2023-03-29T16:03:25.040Z,45.83
2023-03-29T16:06:28.371Z,45.39
2023-03-29T16:09:31.777Z,46.12
2023-03-29T16:12:36.186Z,45.56
2023-03-29T16:15:41.477Z,46.11
2023-03-29T16:18:44.573Z,47.00
2023-03-29T16:21:48.617Z,47.27
2023-03-29T16:24:52.206Z,46.66
2023-03-29T16:27:55.248Z,46.81
2023-03-29T16:30:58.538Z,46.83
2023-03-29T16:34:01.758Z,45.91
2023-03-29T16:37:04.553Z,46.33
2023-03-29T16:40:08.819Z,46.83
2023-03-29T16:43:16.536Z,47.00
2023-03-29T16:46:19.999Z,47.26
2023-03-29T16:49:24.710Z,46.55
2023-03-29T16:52:28.547Z,46.68
2023-03-29T16:55:32.019Z,47.32
2023-03-29T16:58:35.547Z,47.59
2023-03-29T17:01:42.426Z,47.58
2023-03-29T17:04:46.065Z,47.67
2023-03-29T17:07:49.278Z,48.44
2023-03-29T17:10:54.059Z,48.31
2023-03-29T17:13:57.283Z,48.49
2023-03-29T17:17:00.459Z,48.25
2023-03-29T17:20:06.528Z,48.59
2023-03-29T17:23:09.840Z,48.66
2023-03-29T17:26:13.891Z,48.47
2023-03-29T17:29:16.756Z,48.65
2023-03-29T17:32:19.788Z,48.35
2023-03-29T17:35:23.235Z,48.78
2023-03-29T17:38:27.762Z,49.31
2023-03-29T17:41:32.931Z,49.18
2023-03-29T17:44:37.509Z,49.18
2023-03-29T17:47:43.099Z,49.03
2023-03-29T17:50:48.695Z,49.19
2023-03-29T17:53:52.416Z,49.31
2023-03-29T17:56:55.752Z,49.56
2023-03-29T18:00:01.593Z,49.88
2023-03-29T18:03:04.729Z,50.27
2023-03-29T18:06:07.929Z,50.33
2023-03-29T18:09:11.195Z,49.96
2023-03-29T18:12:14.576Z,51.19
2023-03-29T18:15:19.150Z,51.44
2023-03-29T18:18:22.631Z,52.60
2023-03-29T18:21:26.715Z,53.31
2023-03-29T18:24:29.801Z,53.05
2023-03-29T18:27:32.947Z,52.63
2023-03-29T18:30:36.324Z,52.92
2023-03-29T18:33:41.848Z,52.94
2023-03-29T18:36:45.068Z,52.65
2023-03-29T18:39:48.539Z,53.19
2023-03-29T18:42:52.394Z,52.71
2023-03-29T18:45:55.433Z,52.86
2023-03-29T18:48:59.003Z,52.84
2023-03-29T18:52:02.475Z,52.76
2023-03-29T18:55:07.256Z,52.59
2023-03-29T18:58:14.624Z,52.58
2023-03-29T19:01:17.831Z,52.48
2023-03-29T19:04:26.423Z,52.33
2023-03-29T19:07:30.316Z,52.39
2023-03-29T19:10:37.822Z,52.21
2023-03-29T19:13:41.437Z,52.28
2023-03-29T19:16:44.398Z,52.79
2023-03-29T19:19:47.731Z,52.92
2023-03-29T19:22:50.970Z,52.68
2023-03-29T19:25:54.627Z,54.50
2023-03-29T19:28:57.352Z,54.41
2023-03-29T19:32:00.496Z,54.31
2023-03-29T19:35:03.421Z,55.15
2023-03-29T19:38:06.301Z,55.64
2023-03-29T19:41:09.531Z,56.75
2023-03-29T19:44:12.485Z,57.42
2023-03-29T19:47:16.124Z,57.12
2023-03-29T19:50:19.411Z,57.44
2023-03-29T19:53:23.421Z,57.21
2023-03-29T19:56:26.695Z,56.04
2023-03-29T19:59:29.402Z,56.25
2023-03-29T20:02:32.465Z,56.47
2023-03-29T20:05:36.190Z,55.94
2023-03-29T20:08:39.372Z,56.40
2023-03-29T20:11:44.520Z,58.23
2023-03-29T20:14:47.377Z,58.43
2023-03-29T20:17:51.841Z,58.12
2023-03-29T20:20:55.069Z,57.16
2023-03-29T20:23:58.084Z,56.75
2023-03-29T20:27:01.138Z,57.16
2023-03-29T20:30:05.123Z,58.04
2023-03-29T20:33:08.441Z,57.43
2023-03-29T20:36:12.498Z,58.27
2023-03-29T20:39:18.573Z,57.65
2023-03-29T20:42:25.158Z,57.93
2023-03-29T20:45:28.164Z,58.38
2023-03-29T20:48:30.832Z,58.58
2023-03-29T20:51:34.132Z,58.61
2023-03-29T20:54:40.535Z,58.81
2023-03-29T20:57:43.384Z,58.96
2023-03-29T21:00:48.731Z,58.68
2023-03-29T21:03:51.955Z,59.11
2023-03-29T21:06:54.931Z,59.25
2023-03-29T21:09:58.099Z,59.32
2023-03-29T21:13:02.981Z,60.17
2023-03-29T21:16:06.436Z,59.71
2023-03-29T21:19:10.265Z,59.81
2023-03-29T21:22:16.009Z,60.02
2023-03-29T21:25:19.136Z,61.45
2023-03-29T21:28:22.186Z,61.62
2023-03-29T21:31:25.283Z,61.91
2023-03-29T21:34:28.067Z,61.76
2023-03-29T21:37:31.124Z,61.52
2023-03-29T21:40:37.018Z,61.77
2023-03-29T21:43:40.190Z,62.63
2023-03-29T21:46:42.962Z,62.41
2023-03-29T21:49:45.806Z,62.26
2023-03-29T21:52:49.118Z,62.61
2023-03-29T21:55:52.474Z,63.41
2023-03-29T21:58:55.596Z,62.85
2023-03-29T22:01:58.298Z,62.70
2023-03-29T22:05:01.221Z,62.45
2023-03-29T22:08:05.297Z,62.33
2023-03-29T22:11:11.186Z,62.36
2023-03-29T22:14:14.372Z,63.66
2023-03-29T22:17:17.073Z,64.19
2023-03-29T22:20:20.101Z,63.50
2023-03-29T22:23:25.093Z,62.91
2023-03-29T22:26:30.158Z,63.04
2023-03-29T22:29:33.372Z,63.32
2023-03-29T22:32:36.179Z,63.88
2023-03-29T22:35:38.846Z,63.57
2023-03-29T22:38:41.787Z,64.31
2023-03-29T22:41:47.044Z,65.24
2023-03-29T22:44:49.848Z,64.96
2023-03-29T22:47:52.613Z,63.58
2023-03-29T22:50:55.212Z,63.22
2023-03-29T22:53:58.007Z,63.31
2023-03-29T22:57:00.665Z,63.78
2023-03-29T23:00:07.274Z,64.61
2023-03-29T23:03:10.471Z,66.77
2023-03-29T23:06:13.250Z,67.18
2023-03-29T23:09:16.572Z,65.93
2023-03-29T23:12:19.504Z,64.77
2023-03-29T23:15:23.183Z,65.00
2023-03-29T23:18:28.004Z,64.52
2023-03-29T23:21:30.864Z,64.97
2023-03-29T23:24:34.072Z,64.34
2023-03-29T23:27:37.078Z,64.92
2023-03-29T23:30:40.273Z,65.59
2023-03-29T23:33:43.050Z,64.26
2023-03-29T23:36:45.853Z,64.11
2023-03-29T23:39:48.577Z,64.16
2023-03-29T23:42:51.445Z,64.98
2023-03-29T23:45:58.460Z,65.23
2023-03-29T23:49:01.222Z,64.37
2023-03-29T23:52:04.002Z,64.24
2023-03-29T23:55:08.765Z,64.66
2023-03-29T23:58:12.166Z,65.62
